createdAt,value
2023-01-12T00:00:44.923Z,24.8
2023-01-12T00:05:52.389Z,24.4
2023-01-12T00:10:27.459Z,24.9
2023-01-12T00:15:33.900Z,29.2
2023-01-12T00:20:56.771Z,30.9
2023-01-12T00:26:03.972Z,27.4
2023-01-12T00:31:11.057Z,26.3
2023-01-12T00:36:33.491Z,25.3
2023-01-12T00:42:01.217Z,24.7
2023-01-12T00:47:23.556Z,24.3
2023-01-12T00:52:46.347Z,25.2
2023-01-12T00:58:08.790Z,29.2
2023-01-12T01:03:32.161Z,30.2
2023-01-12T01:08:23.334Z,27.3
2023-01-12T01:13:15.433Z,26.3
2023-01-12T01:18:22.960Z,25.2
2023-01-12T01:23:29.633Z,24.8
2023-01-12T01:28:21.634Z,24.1
2023-01-12T01:33:27.470Z,23.9
2023-01-12T01:38:33.936Z,28.7
2023-01-12T01:43:56.540Z,30.8
2023-01-12T01:49:18.904Z,28
2023-01-12T01:54:25.599Z,26.8
2023-01-12T01:59:48.035Z,25.3
2023-01-12T02:04:59.612Z,24.9
2023-01-12T02:09:50.978Z,24.1
2023-01-12T02:15:14.134Z,23.9
2023-01-12T02:20:35.468Z,28.5
2023-01-12T02:25:57.699Z,30.7
2023-01-12T02:31:05.214Z,28.3
2023-01-12T02:36:27.400Z,26.9
2023-01-12T02:41:52.127Z,25.2
2023-01-12T02:47:14.865Z,24.8
2023-01-12T02:52:35.883Z,24.1
2023-01-12T02:57:58.332Z,24.8
2023-01-12T03:03:21.780Z,29.1
2023-01-12T03:08:43.430Z,30.9
2023-01-12T03:13:50.288Z,27.9
2023-01-12T03:19:13.348Z,26.8
2023-01-12T03:24:35.420Z,25.1
2023-01-12T03:29:41.972Z,24.8
2023-01-12T03:35:04.905Z,24.1
2023-01-12T03:40:27.548Z,25.4
2023-01-12T03:45:50.201Z,29.2
2023-01-12T03:51:12.913Z,30.9
2023-01-12T03:56:34.441Z,28.1
2023-01-12T04:01:57.010Z,26.9
2023-01-12T04:07:20.015Z,25.1
2023-01-12T04:12:11.029Z,24.8
2023-01-12T04:17:34.149Z,24.1
2023-01-12T04:22:57.094Z,24.8
2023-01-12T04:27:47.215Z,28.9
2023-01-12T04:33:09.973Z,25.6
2023-01-12T04:38:32.741Z,23.4
2023-01-12T04:43:57.735Z,28.8
2023-01-12T04:49:19.327Z,30.9
2023-01-12T04:54:42.450Z,28.1
2023-01-12T05:00:04.959Z,26.8
2023-01-12T05:05:30.563Z,25.1
2023-01-12T05:10:53.051Z,24.6
2023-01-12T05:16:14.731Z,23.9
2023-01-12T05:21:40.815Z,25.9
2023-01-12T05:26:47.586Z,29.4
2023-01-12T05:32:11.775Z,31.1
2023-01-12T05:37:18.862Z,27.9
2023-01-12T05:42:25.940Z,26.8
2023-01-12T05:47:48.038Z,25.1
2023-01-12T05:53:09.721Z,24.6
2023-01-12T05:58:17.200Z,23.9
2023-01-12T06:03:40.365Z,25.1
2023-01-12T06:08:32.302Z,29.1
2023-01-12T06:13:41.025Z,30.8
2023-01-12T06:19:03.858Z,28.8
2023-01-12T06:24:26.644Z,26.9
2023-01-12T06:29:48.879Z,25.1
2023-01-12T06:35:18.915Z,24.6
2023-01-12T06:40:42.083Z,23.9
2023-01-12T06:46:05.103Z,24.7
2023-01-12T06:51:27.647Z,29
2023-01-12T06:56:49.487Z,30.9
2023-01-12T07:02:12.948Z,28.6
2023-01-12T07:07:35.276Z,26.9
2023-01-12T07:12:58.518Z,25.1
2023-01-12T07:18:24.240Z,24.6
2023-01-12T07:23:46.468Z,23.9
2023-01-12T07:29:11.628Z,25.5
2023-01-12T07:34:34.523Z,29.3
2023-01-12T07:39:59.189Z,31.1
2023-01-12T07:45:21.772Z,28.1
2023-01-12T07:50:46.335Z,26.9
2023-01-12T07:56:08.827Z,25
2023-01-12T08:01:31.881Z,24.6
2023-01-12T08:06:57.462Z,23.8
2023-01-12T08:12:20.145Z,23.6
2023-01-12T08:17:42.643Z,23.1
2023-01-12T08:23:05.278Z,22.8
2023-01-12T08:28:29.864Z,22.5
2023-01-12T08:33:52.512Z,24.1
2023-01-12T08:39:33.882Z,28.6
2023-01-12T08:44:57.826Z,27.1
2023-01-12T08:50:24.262Z,26.4
2023-01-12T08:55:47.078Z,24.8
2023-01-12T09:00:54.663Z,24.3
2023-01-12T09:06:02.795Z,23.5
2023-01-12T09:11:25.894Z,23.2
2023-01-12T09:17:03.074Z,22.7
2023-01-12T09:22:26.387Z,22.4
2023-01-12T09:27:51.533Z,27.6
2023-01-12T09:33:24.092Z,28.8
2023-01-12T09:38:46.295Z,26.6
2023-01-12T09:44:01.265Z,25.3
2023-01-12T09:49:24.566Z,24.4
2023-01-12T09:54:56.423Z,23.6
2023-01-12T10:00:32.396Z,23.2
2023-01-12T10:06:12.178Z,22.8
2023-01-12T10:11:35.367Z,22.4
2023-01-12T10:16:42.844Z,26.9
2023-01-12T10:22:24.882Z,29.3
2023-01-12T10:27:47.656Z,26.8
2023-01-12T10:33:14.883Z,25.8
2023-01-12T10:38:37.172Z,24.4
2023-01-12T10:44:09.935Z,23.8
2023-01-12T10:49:32.788Z,23.2
2023-01-12T10:54:58.295Z,22.8
2023-01-12T11:00:21.398Z,22.5
2023-01-12T11:05:46.214Z,26.4
2023-01-12T11:11:10.453Z,29
2023-01-12T11:16:37.199Z,27.1
2023-01-12T11:22:03.752Z,26.3
2023-01-12T11:27:25.913Z,24.6
2023-01-12T11:32:34.153Z,24.1
2023-01-12T11:37:41.742Z,23.3
2023-01-12T11:42:49.019Z,23
2023-01-12T11:48:14.783Z,22.5
2023-01-12T11:53:38.756Z,24.8
2023-01-12T11:59:03.025Z,28.4
2023-01-12T12:04:29.245Z,27.9
2023-01-12T12:09:52.145Z,26.4
2023-01-12T12:15:18.245Z,24.9
2023-01-12T12:20:27.819Z,24.2
2023-01-12T12:25:51.953Z,23.4
2023-01-12T12:31:14.784Z,23.1
2023-01-12T12:36:21.950Z,26.2
2023-01-12T12:41:45.295Z,28.8
2023-01-12T12:47:08.382Z,27.4
2023-01-12T12:52:30.550Z,26.4
2023-01-12T12:57:56.709Z,24.6
2023-01-12T13:02:49.666Z,24.1
2023-01-12T13:07:41.412Z,23.4
2023-01-12T13:12:51.695Z,23.1
2023-01-12T13:18:14.853Z,26.2
2023-01-12T13:23:45.762Z,28.9
2023-01-12T13:29:09.101Z,27.3
2023-01-12T13:34:03.014Z,26.3
2023-01-12T13:39:28.459Z,24.6
2023-01-12T13:44:39.692Z,24.1
2023-01-12T13:50:02.962Z,23.3
2023-01-12T13:55:26.083Z,23
2023-01-12T14:00:50.001Z,26.8
2023-01-12T14:06:16.346Z,29.1
2023-01-12T14:11:52.917Z,26.8
2023-01-12T14:17:38.588Z,25.8
2023-01-12T14:23:01.024Z,24.1
2023-01-12T14:28:23.832Z,23.6
2023-01-12T14:33:47.525Z,22.9
2023-01-12T14:39:09.818Z,23.1
2023-01-12T14:44:32.678Z,27.8
2023-01-12T14:49:56.031Z,29.6
2023-01-12T14:55:18.337Z,26.6
2023-01-12T15:00:41.458Z,26.2
2023-01-12T15:06:13.762Z,26.1
2023-01-12T15:11:36.027Z,25.8
2023-01-12T15:16:58.526Z,25.4
2023-01-12T15:22:21.560Z,25.1
2023-01-12T15:27:56.275Z,24.7
2023-01-12T15:33:32.273Z,24.3
2023-01-12T15:38:55.115Z,23.9
2023-01-12T15:44:17.049Z,23.6
2023-01-12T15:49:40.068Z,23.3
2023-01-12T15:55:02.834Z,23.1
2023-01-12T16:00:08.959Z,22.8
2023-01-12T16:06:37.941Z,22.6
2023-01-12T16:12:02.720Z,30.8
2023-01-12T16:17:10.415Z,34.8
2023-01-12T16:22:32.721Z,39.1
2023-01-12T16:27:57.629Z,41.1
2023-01-12T16:33:21.363Z,40.6
2023-01-12T16:38:43.988Z,39.3
2023-01-12T16:43:53.795Z,38.9
2023-01-12T16:49:01.149Z,40.5
2023-01-12T16:54:24.606Z,42.3
2023-01-12T16:59:50.105Z,43
2023-01-12T17:05:18.520Z,42.4
2023-01-12T17:10:12.593Z,42.1
2023-01-12T17:15:47.786Z,40.3
2023-01-12T17:20:59.184Z,38.9
2023-01-12T17:26:24.320Z,41.9
2023-01-12T17:31:19.734Z,38.7
2023-01-12T17:36:28.795Z,39.4
2023-01-12T17:41:52.218Z,39.7
2023-01-12T17:47:16.774Z,42.4
2023-01-12T17:52:27.761Z,42.9
2023-01-12T17:57:45.452Z,42.8
2023-01-12T18:03:10.527Z,41.2
2023-01-12T18:08:56.046Z,41.5
2023-01-12T18:14:19.513Z,38.8
2023-01-12T18:19:29.312Z,41.8
2023-01-12T18:24:52.564Z,42.8
2023-01-12T18:30:17.657Z,43
2023-01-12T18:35:43.201Z,42.9
2023-01-12T18:41:08.506Z,42.9
2023-01-12T18:46:34.297Z,43
2023-01-12T18:51:45.023Z,42.9
2023-01-12T18:57:12.852Z,42.6
2023-01-12T19:02:41.336Z,40.3
2023-01-12T19:08:10.207Z,38.9
2023-01-12T19:13:40.825Z,41.3
2023-01-12T19:19:10.983Z,38.3
2023-01-12T19:24:10.314Z,41.7
2023-01-12T19:29:26.001Z,39.6
2023-01-12T19:35:06.161Z,41.8
2023-01-12T19:40:41.544Z,41
2023-01-12T19:46:12.290Z,42.8
2023-01-12T19:51:44.942Z,42.8
2023-01-12T19:57:15.024Z,42.1
2023-01-12T20:02:29.126Z,38.2
2023-01-12T20:07:56.877Z,37.7
2023-01-12T20:13:09.976Z,36.8
2023-01-12T20:18:42.292Z,36.4
2023-01-12T20:23:55.687Z,36.3
2023-01-12T20:29:09.870Z,35.6
2023-01-12T20:34:55.947Z,34.8
2023-01-12T20:40:22.629Z,33.9
2023-01-12T20:45:48.637Z,33.1
2023-01-12T20:51:16.089Z,32.4
2023-01-12T20:56:40.003Z,31.7
2023-01-12T21:01:52.150Z,31.1
2023-01-12T21:07:04.702Z,30.7
2023-01-12T21:12:24.758Z,30.3
2023-01-12T21:17:49.775Z,29.8
2023-01-12T21:23:12.739Z,29.4
2023-01-12T21:28:36.020Z,29.1
2023-01-12T21:33:59.934Z,28.8
2023-01-12T21:39:23.559Z,28.6
2023-01-12T21:44:30.551Z,28.3
2023-01-12T21:49:40.679Z,26.9
2023-01-12T21:54:48.471Z,25.9
2023-01-12T21:59:55.436Z,25.7
2023-01-12T22:05:19.569Z,24.9
2023-01-12T22:10:26.854Z,24.6
2023-01-12T22:15:33.955Z,24.1
2023-01-12T22:20:56.887Z,23.9
2023-01-12T22:26:19.298Z,27.6
2023-01-12T22:31:41.798Z,30.9
2023-01-12T22:37:07.937Z,27.4
2023-01-12T22:42:14.992Z,26.3
2023-01-12T22:47:21.906Z,25.6
2023-01-12T22:52:53.024Z,25.1
2023-01-12T22:58:15.545Z,24.7
2023-01-12T23:03:22.939Z,24.3
2023-01-12T23:08:30.453Z,24
2023-01-12T23:13:37.260Z,25.3
2023-01-12T23:18:59.564Z,29.6
2023-01-12T23:24:21.637Z,29.3
2023-01-12T23:29:28.236Z,27.1
2023-01-12T23:34:49.854Z,25.9
2023-01-12T23:39:57.172Z,25.3
2023-01-12T23:45:19.057Z,24.7
2023-01-12T23:50:40.815Z,24.4
2023-01-12T23:56:02.981Z,26.9
